Time;durP1;ratioP1;P1;durP2;ratioP2;P2;SDS_P1;SDS_P2;PMS_P1;PMS_P2;Temp;Humidity;BMP_temperature;BMP_pressure;BME280_temperature;BME280_humidity;BME280_pressure;Samples;Min_cycle;Max_cycle;Signal;HPM_P1;HPM_P2
2022/03/04 00:02:03;;;;;;;33.20;12.98;;;10.70;68.90;;;;;;5015125;28;20025;-77
2022/03/04 00:04:30;;;;;;;32.42;13.65;;;10.70;68.90;;;;;;5014900;28;20048;-77
2022/03/04 00:06:55;;;;;;;31.70;12.85;;;10.70;68.80;;;;;;5016474;28;20446;-76
2022/03/04 00:09:21;;;;;;;29.55;13.02;;;10.70;68.70;;;;;;5014440;28;20173;-76
2022/03/04 00:11:50;;;;;;;24.95;12.73;;;10.70;68.70;;;;;;5014944;28;20052;-77
2022/03/04 00:14:15;;;;;;;33.65;13.35;;;10.70;68.50;;;;;;5016308;28;20033;-77
2022/03/04 00:16:41;;;;;;;23.00;12.70;;;10.70;68.60;;;;;;5014977;28;20030;-77
2022/03/04 00:19:07;;;;;;;26.23;13.45;;;10.70;68.60;;;;;;5014410;28;20022;-77
2022/03/04 00:21:39;;;;;;;23.38;12.00;;;10.70;68.50;;;;;;5016172;28;20064;-79
2022/03/04 00:24:07;;;;;;;24.17;13.32;;;10.70;68.50;;;;;;5015060;28;20034;-77
2022/03/04 00:26:32;;;;;;;22.25;13.60;;;10.70;68.60;;;;;;5016563;28;20025;-76
2022/03/04 00:28:59;;;;;;;21.40;13.23;;;10.60;68.50;;;;;;5016153;28;20026;-77
2022/03/04 00:31:26;;;;;;;19.63;12.73;;;10.60;68.60;;;;;;5014869;28;20030;-78
2022/03/04 00:33:52;;;;;;;41.55;13.82;;;10.70;69.10;;;;;;5016059;28;20038;-77
2022/03/04 00:36:22;;;;;;;35.28;14.55;;;10.60;68.50;;;;;;5015222;28;20049;-77
2022/03/04 00:38:48;;;;;;;24.08;13.18;;;10.60;68.50;;;;;;5014031;28;20057;-77
2022/03/04 00:41:14;;;;;;;32.72;13.52;;;10.60;68.50;;;;;;5016700;28;20483;-77
2022/03/04 00:43:39;;;;;;;22.33;12.98;;;10.60;68.40;;;;;;5015013;28;20029;-77
2022/03/04 00:46:05;;;;;;;24.83;13.52;;;10.60;68.40;;;;;;5015218;28;20022;-77
2022/03/04 00:48:30;;;;;;;24.52;13.98;;;10.60;68.40;;;;;;5014673;28;20025;-78
2022/03/04 00:50:56;;;;;;;28.63;13.23;;;10.60;68.40;;;;;;5015093;28;20028;-77
2022/03/04 00:53:22;;;;;;;24.95;13.70;;;10.70;68.50;;;;;;5016689;28;20053;-78
2022/03/04 00:55:47;;;;;;;54.35;14.90;;;10.60;68.40;;;;;;5015200;28;20029;-77
2022/03/04 00:58:13;;;;;;;29.67;13.73;;;10.60;69.00;;;;;;5015041;28;20558;-79
2022/03/04 01:00:38;;;;;;;25.50;13.35;;;10.60;68.40;;;;;;5015101;28;20053;-78
2022/03/04 01:03:04;;;;;;;24.10;13.35;;;10.60;68.40;;;;;;5014624;28;20114;-77
2022/03/04 01:05:30;;;;;;;20.88;13.25;;;10.60;68.30;;;;;;5016114;28;20017;-77
2022/03/04 01:07:55;;;;;;;22.58;13.75;;;10.60;68.30;;;;;;5008968;28;20026;-78
2022/03/04 01:10:21;;;;;;;19.95;13.68;;;10.60;68.30;;;;;;4995223;28;20503;-77
2022/03/04 01:12:47;;;;;;;21.40;12.73;;;10.60;68.40;;;;;;4996387;28;20036;-78
2022/03/04 01:15:13;;;;;;;19.27;13.20;;;10.60;68.40;;;;;;4996396;28;20030;-80
2022/03/04 01:17:39;;;;;;;19.75;13.07;;;10.60;68.30;;;;;;4996639;28;20026;-77
2022/03/04 01:20:06;;;;;;;20.42;12.95;;;10.60;68.40;;;;;;4994515;28;20033;-78
2022/03/04 01:22:32;;;;;;;26.48;13.38;;;10.60;68.30;;;;;;4996209;28;20049;-77
2022/03/04 01:24:57;;;;;;;20.17;13.45;;;10.60;68.30;;;;;;4996234;28;20030;-78
2022/03/04 01:27:24;;;;;;;23.98;13.73;;;10.60;68.30;;;;;;4994803;28;20057;-77
2022/03/04 01:29:50;;;;;;;18.88;13.20;;;10.60;68.30;;;;;;4995993;28;20022;-77
2022/03/04 01:32:15;;;;;;;19.20;13.05;;;10.60;68.20;;;;;;4994821;28;20029;-77
2022/03/04 01:34:41;;;;;;;20.15;13.85;;;10.50;68.10;;;;;;4996220;28;20236;-78
2022/03/04 01:37:08;;;;;;;19.23;13.65;;;10.50;68.10;;;;;;4994589;28;20400;-77
2022/03/04 01:39:34;;;;;;;22.38;13.52;;;10.50;68.00;;;;;;4994356;28;20034;-78
2022/03/04 01:42:00;;;;;;;19.92;13.93;;;10.50;68.10;;;;;;4998216;28;20021;-78
2022/03/04 01:44:25;;;;;;;18.73;13.27;;;10.50;68.10;;;;;;5014255;28;20369;-77
2022/03/04 01:46:51;;;;;;;19.98;13.80;;;10.50;68.10;;;;;;5014505;28;20025;-77
2022/03/04 01:49:17;;;;;;;21.75;13.65;;;10.50;68.10;;;;;;5014182;28;20069;-77
2022/03/04 01:51:43;;;;;;;17.85;12.82;;;10.50;68.10;;;;;;5014654;28;20438;-79
2022/03/04 01:54:08;;;;;;;19.52;13.52;;;10.50;68.10;;;;;;5014287;28;20025;-79
2022/03/04 01:56:34;;;;;;;23.70;14.07;;;10.50;68.20;;;;;;5014177;28;20025;-77
2022/03/04 01:58:59;;;;;;;21.30;14.40;;;10.50;68.20;;;;;;5013502;28;20116;-78
2022/03/04 02:01:25;;;;;;;23.00;14.50;;;10.50;68.20;;;;;;5015581;28;20052;-78
2022/03/04 02:03:51;;;;;;;21.75;14.35;;;10.50;68.10;;;;;;5014814;28;20057;-79
2022/03/04 02:06:17;;;;;;;21.92;14.48;;;10.50;68.20;;;;;;5013965;28;20033;-78
2022/03/04 02:08:42;;;;;;;21.17;14.80;;;10.50;68.20;;;;;;5013477;28;20419;-78
2022/03/04 02:11:08;;;;;;;21.95;14.68;;;10.50;68.20;;;;;;5014426;28;20368;-80
2022/03/04 02:13:34;;;;;;;21.73;14.40;;;10.50;68.20;;;;;;5013782;28;20018;-77
2022/03/04 02:16:00;;;;;;;25.23;14.80;;;10.50;68.20;;;;;;5014180;28;20022;-78
2022/03/04 02:18:26;;;;;;;22.50;15.23;;;10.50;68.40;;;;;;5023094;28;20166;-77
2022/03/04 02:20:52;;;;;;;23.85;15.23;;;10.50;68.30;;;;;;5031862;28;20536;-78
2022/03/04 02:23:19;;;;;;;24.60;15.00;;;10.50;68.20;;;;;;5024309;28;20057;-78
2022/03/04 02:25:50;;;;;;;35.00;15.85;;;10.50;68.20;;;;;;5015302;28;20030;-79
2022/03/04 02:28:18;;;;;;;33.08;16.10;;;10.50;68.10;;;;;;5013076;28;20089;-77
2022/03/04 02:30:43;;;;;;;63.47;18.20;;;10.50;68.30;;;;;;5013394;28;20038;-76
2022/03/04 02:33:09;;;;;;;34.00;15.40;;;10.50;68.10;;;;;;5021485;28;20033;-77
2022/03/04 02:35:35;;;;;;;29.77;16.25;;;10.50;68.00;;;;;;5033189;28;20482;-77
2022/03/04 02:38:02;;;;;;;25.48;15.45;;;10.40;67.90;;;;;;5034322;28;20021;-77
2022/03/04 02:40:27;;;;;;;23.40;16.02;;;10.40;67.80;;;;;;5026342;28;20028;-77
2022/03/04 02:42:53;;;;;;;23.40;16.05;;;10.40;67.80;;;;;;5024588;28;20030;-78
2022/03/04 02:45:19;;;;;;;24.48;16.52;;;10.40;67.70;;;;;;5027254;28;20395;-78
2022/03/04 02:47:44;;;;;;;24.25;15.50;;;10.40;67.70;;;;;;5023248;28;20029;-78
2022/03/04 02:50:11;;;;;;;23.95;15.73;;;10.40;67.70;;;;;;5020771;28;20026;-77
2022/03/04 02:52:36;;;;;;;23.02;16.48;;;10.40;67.70;;;;;;5014257;28;20034;-77
2022/03/04 02:55:02;;;;;;;30.67;17.25;;;10.40;67.70;;;;;;5013168;28;20562;-78
2022/03/04 02:57:28;;;;;;;27.30;17.15;;;10.40;67.70;;;;;;5014206;28;20060;-77
2022/03/04 02:59:53;;;;;;;29.00;17.08;;;10.40;67.60;;;;;;5012776;28;20022;-77
2022/03/04 03:02:19;;;;;;;33.35;17.77;;;10.40;67.60;;;;;;5016814;28;20022;-77
2022/03/04 03:04:44;;;;;;;37.67;18.33;;;10.40;67.60;;;;;;5017664;28;20029;-78
2022/03/04 03:07:10;;;;;;;29.98;17.38;;;10.40;67.50;;;;;;5018605;28;20387;-78
2022/03/04 03:09:35;;;;;;;26.70;18.67;;;10.30;67.50;;;;;;5017454;28;20080;-78
2022/03/04 03:12:01;;;;;;;27.40;17.33;;;10.40;67.60;;;;;;5017298;28;20030;-78
2022/03/04 03:14:27;;;;;;;24.20;17.23;;;10.40;67.50;;;;;;5018390;28;20089;-79
2022/03/04 03:16:52;;;;;;;29.33;19.05;;;10.40;67.50;;;;;;5016812;28;20030;-78
2022/03/04 03:19:18;;;;;;;25.23;17.27;;;10.30;67.40;;;;;;5016997;28;20032;-78
2022/03/04 03:21:43;;;;;;;28.75;17.73;;;10.40;67.40;;;;;;5017491;28;20022;-77
2022/03/04 03:24:09;;;;;;;31.65;18.27;;;10.40;67.30;;;;;;5016946;28;20030;-77
2022/03/04 03:26:34;;;;;;;29.55;18.88;;;10.30;67.30;;;;;;5018243;28;20036;-78
2022/03/04 03:29:00;;;;;;;31.77;18.30;;;10.30;67.20;;;;;;5018001;28;20108;-77
2022/03/04 03:31:26;;;;;;;74.88;20.42;;;10.40;67.30;;;;;;5018062;28;20026;-79
2022/03/04 03:33:51;;;;;;;40.10;19.65;;;10.40;67.30;;;;;;5016339;28;20030;-78
2022/03/04 03:36:17;;;;;;;28.70;19.08;;;10.30;67.20;;;;;;5016206;28;20558;-77
2022/03/04 03:38:42;;;;;;;28.40;19.20;;;10.30;67.20;;;;;;5016625;28;20018;-78
2022/03/04 03:41:09;;;;;;;28.02;18.17;;;10.30;67.20;;;;;;5015112;28;20042;-78
2022/03/04 03:43:34;;;;;;;29.55;19.20;;;10.30;67.20;;;;;;5016552;28;20030;-77
2022/03/04 03:46:00;;;;;;;27.58;18.73;;;10.30;67.20;;;;;;5032291;28;20368;-78
2022/03/04 03:48:25;;;;;;;40.75;19.65;;;10.30;67.20;;;;;;5015799;28;20029;-77
2022/03/04 03:50:51;;;;;;;30.73;19.20;;;10.30;67.30;;;;;;5016390;28;20029;-77
2022/03/04 03:53:17;;;;;;;28.73;19.27;;;10.30;67.30;;;;;;5017707;28;20030;-78
2022/03/04 03:55:42;;;;;;;29.45;19.55;;;10.30;67.30;;;;;;5017149;28;20396;-78
2022/03/04 03:58:08;;;;;;;29.05;19.40;;;10.30;67.30;;;;;;5016168;28;20415;-76
2022/03/04 04:00:34;;;;;;;29.15;18.48;;;10.30;67.40;;;;;;5016326;28;20479;-77
2022/03/04 04:03:00;;;;;;;29.80;19.38;;;10.30;67.50;;;;;;5015877;28;20022;-76
2022/03/04 04:05:25;;;;;;;29.83;19.35;;;10.30;67.50;;;;;;5016240;28;20160;-78
2022/03/04 04:07:51;;;;;;;28.50;18.02;;;10.30;67.50;;;;;;5016473;28;20026;-79
2022/03/04 04:10:17;;;;;;;27.35;18.23;;;10.30;67.50;;;;;;5017300;28;20049;-77
2022/03/04 04:12:42;;;;;;;31.08;19.25;;;10.40;67.60;;;;;;5014871;28;20022;-78
2022/03/04 04:15:08;;;;;;;26.73;18.67;;;10.40;67.70;;;;;;5015974;28;20116;-77
2022/03/04 04:17:33;;;;;;;29.90;18.40;;;10.30;67.60;;;;;;5017496;28;20028;-77
2022/03/04 04:19:59;;;;;;;32.67;18.90;;;10.30;67.60;;;;;;5015474;28;20048;-78
2022/03/04 04:22:24;;;;;;;30.35;18.63;;;10.30;67.60;;;;;;5016047;28;20391;-77
2022/03/04 04:24:50;;;;;;;27.30;18.55;;;10.30;67.60;;;;;;5015581;28;20022;-78
2022/03/04 04:27:15;;;;;;;26.20;18.30;;;10.30;67.60;;;;;;5017336;28;20018;-77
2022/03/04 04:29:41;;;;;;;26.40;18.33;;;10.30;67.60;;;;;;5016886;28;20081;-78
2022/03/04 04:32:07;;;;;;;27.27;18.58;;;10.30;67.60;;;;;;5015273;28;20113;-78
2022/03/04 04:34:33;;;;;;;28.50;18.75;;;10.30;67.60;;;;;;5016162;28;20026;-79
2022/03/04 04:36:58;;;;;;;26.45;18.40;;;10.30;67.60;;;;;;5016179;28;20040;-79
2022/03/04 04:39:24;;;;;;;27.70;17.88;;;10.30;67.70;;;;;;5015027;28;20026;-79
2022/03/04 04:41:49;;;;;;;28.63;19.52;;;10.30;67.70;;;;;;5014872;28;20109;-78
2022/03/04 04:44:15;;;;;;;30.00;19.20;;;10.30;67.60;;;;;;5014541;28;20022;-78
2022/03/04 04:46:40;;;;;;;30.45;19.55;;;10.30;67.60;;;;;;5015158;28;20026;-78
2022/03/04 04:49:06;;;;;;;28.00;19.30;;;10.30;67.60;;;;;;5014696;28;20108;-79
2022/03/04 04:51:32;;;;;;;31.73;18.13;;;10.30;67.50;;;;;;5015661;28;20062;-79
2022/03/04 04:53:57;;;;;;;26.45;17.95;;;10.30;67.50;;;;;;5014777;28;20049;-79
2022/03/04 04:56:22;;;;;;;26.70;18.70;;;10.30;67.50;;;;;;5015858;28;20502;-78
2022/03/04 04:58:48;;;;;;;28.23;18.13;;;10.30;67.60;;;;;;5014431;28;20030;-78
2022/03/04 05:01:15;;;;;;;27.40;18.13;;;10.30;67.60;;;;;;5014360;28;20034;-78
2022/03/04 05:03:40;;;;;;;27.45;17.67;;;10.30;67.50;;;;;;5015117;28;20029;-78
2022/03/04 05:06:06;;;;;;;27.52;17.30;;;10.30;67.40;;;;;;5016051;28;20018;-79
2022/03/04 05:08:31;;;;;;;24.02;17.25;;;10.30;67.50;;;;;;5013586;28;20034;-78
2022/03/04 05:10:57;;;;;;;23.67;17.17;;;10.30;67.50;;;;;;5115654;22;20041;-71
2022/03/04 05:13:23;;;;;;;25.40;17.15;;;10.30;67.50;;;;;;5067157;28;20021;-71
2022/03/04 05:15:48;;;;;;;25.70;16.98;;;10.30;67.60;;;;;;5059706;28;20032;-71
2022/03/04 05:18:14;;;;;;;24.67;17.10;;;10.30;67.60;;;;;;5068859;28;20021;-71
2022/03/04 05:20:40;;;;;;;24.27;16.40;;;10.30;67.50;;;;;;5072137;28;20036;-72
2022/03/04 05:23:06;;;;;;;24.95;16.85;;;10.30;67.50;;;;;;5066873;28;20024;-71
2022/03/04 05:25:32;;;;;;;24.98;16.48;;;10.30;67.50;;;;;;5063044;28;20029;-71
2022/03/04 05:27:57;;;;;;;25.38;16.42;;;10.30;67.50;;;;;;5061660;28;21496;-71
2022/03/04 05:30:23;;;;;;;23.52;16.65;;;10.30;67.50;;;;;;5057935;28;20047;-69
2022/03/04 05:32:48;;;;;;;26.02;16.67;;;10.30;67.50;;;;;;5055123;28;20029;-72
2022/03/04 05:35:14;;;;;;;24.88;16.50;;;10.30;67.60;;;;;;5059146;28;20033;-70
2022/03/04 05:37:40;;;;;;;22.88;15.98;;;10.30;67.50;;;;;;5052034;28;20036;-72
2022/03/04 05:40:06;;;;;;;23.98;16.27;;;10.30;67.50;;;;;;5054160;28;20020;-72
2022/03/04 05:42:31;;;;;;;26.15;15.57;;;10.30;67.50;;;;;;5057323;28;20549;-71
2022/03/04 05:44:57;;;;;;;23.70;16.30;;;10.30;67.50;;;;;;5056735;28;20139;-70
2022/03/04 05:47:22;;;;;;;23.33;15.40;;;10.30;67.60;;;;;;5063000;28;20017;-71
2022/03/04 05:49:48;;;;;;;23.13;15.90;;;10.30;67.70;;;;;;5055891;28;20082;-71
2022/03/04 05:52:13;;;;;;;23.13;15.75;;;10.30;67.60;;;;;;5047004;28;20507;-71
2022/03/04 05:54:39;;;;;;;23.60;15.85;;;10.30;67.60;;;;;;5046822;28;20644;-71
2022/03/04 05:57:06;;;;;;;22.27;14.98;;;10.30;67.70;;;;;;5045282;28;20054;-72
2022/03/04 05:59:31;;;;;;;24.77;15.90;;;10.30;67.70;;;;;;5060150;28;20033;-70
2022/03/04 06:01:57;;;;;;;25.50;16.25;;;10.30;67.70;;;;;;5060792;28;20478;-72
2022/03/04 06:04:23;;;;;;;22.17;15.32;;;10.30;67.60;;;;;;5051746;28;20025;-72
2022/03/04 06:06:48;;;;;;;22.15;15.48;;;10.20;67.50;;;;;;5054434;28;20071;-72
2022/03/04 06:09:14;;;;;;;23.65;15.20;;;10.20;67.40;;;;;;5054697;28;20044;-73
2022/03/04 06:11:39;;;;;;;27.45;14.85;;;10.20;64.40;;;;;;5054465;28;20601;-72
2022/03/04 06:14:06;;;;;;;24.67;15.15;;;10.20;65.30;;;;;;5053817;28;20028;-72
2022/03/04 06:16:31;;;;;;;26.38;15.40;;;10.20;66.00;;;;;;5052354;28;20040;-72
2022/03/04 06:18:58;;;;;;;21.55;15.38;;;10.20;66.40;;;;;;5055441;28;20032;-71
2022/03/04 06:21:23;;;;;;;23.15;15.65;;;10.20;66.70;;;;;;5049483;28;20108;-73
2022/03/04 06:23:49;;;;;;;20.60;13.98;;;10.20;66.90;;;;;;5050949;28;20166;-72
2022/03/04 06:26:14;;;;;;;22.67;15.40;;;10.20;67.00;;;;;;5052295;28;20024;-72
2022/03/04 06:28:40;;;;;;;21.13;14.88;;;10.20;67.00;;;;;;5061460;28;20081;-71
2022/03/04 06:31:06;;;;;;;21.90;14.90;;;10.20;67.10;;;;;;5051921;28;20029;-70
2022/03/04 06:33:32;;;;;;;23.77;14.57;;;10.20;67.20;;;;;;5044338;28;20085;-72
2022/03/04 06:36:00;;;;;;;24.73;14.68;;;10.20;67.40;;;;;;5067444;28;20059;-70
2022/03/04 06:38:26;;;;;;;22.25;14.80;;;10.20;67.50;;;;;;5053331;28;20029;-74
2022/03/04 06:40:52;;;;;;;27.77;15.30;;;10.20;67.60;;;;;;5046945;28;20036;-71
2022/03/04 06:43:18;;;;;;;23.20;14.70;;;10.20;67.70;;;;;;5048921;28;20036;-71
2022/03/04 06:45:46;;;;;;;23.13;15.50;;;10.30;67.70;;;;;;5047729;28;20029;-71
2022/03/04 06:48:12;;;;;;;25.67;14.60;;;10.20;65.80;;;;;;5046211;28;20044;-72
2022/03/04 06:50:38;;;;;;;22.30;14.35;;;10.10;66.20;;;;;;5053956;28;20035;-71
2022/03/04 06:53:04;;;;;;;25.77;15.60;;;10.10;66.50;;;;;;5055712;28;20276;-70
2022/03/04 06:55:33;;;;;;;20.77;14.98;;;10.20;66.90;;;;;;5061370;28;20117;-71
2022/03/04 06:57:59;;;;;;;41.38;15.73;;;10.20;67.10;;;;;;5066666;28;20061;-71
2022/03/04 07:00:25;;;;;;;34.47;15.63;;;10.20;67.20;;;;;;5060641;28;20100;-71
2022/03/04 07:02:51;;;;;;;32.60;15.10;;;10.20;67.40;;;;;;5058687;28;20081;-71
2022/03/04 07:05:20;;;;;;;26.00;14.18;;;10.20;67.10;;;;;;5057640;28;20064;-70
2022/03/04 07:07:46;;;;;;;24.02;14.40;;;10.20;66.90;;;;;;5056003;28;20021;-72
2022/03/04 07:10:11;;;;;;;30.38;15.18;;;10.20;67.00;;;;;;5066162;28;20085;-72
2022/03/04 07:12:37;;;;;;;24.30;14.30;;;10.20;67.10;;;;;;5057560;28;20020;-72
2022/03/04 07:15:04;;;;;;;24.85;14.65;;;10.20;67.20;;;;;;5056115;28;20474;-71
2022/03/04 07:17:30;;;;;;;25.23;14.48;;;10.20;67.30;;;;;;5057220;28;20027;-71
2022/03/04 07:19:55;;;;;;;22.17;13.25;;;10.20;67.40;;;;;;5052523;28;20032;-72
2022/03/04 07:22:21;;;;;;;27.58;14.25;;;10.20;67.50;;;;;;5060578;28;20568;-70
2022/03/04 07:24:46;;;;;;;41.17;15.27;;;10.20;67.80;;;;;;5066912;28;20025;-72
2022/03/04 07:27:12;;;;;;;30.60;14.45;;;10.20;67.70;;;;;;5068237;28;20932;-72
2022/03/04 07:29:37;;;;;;;24.65;14.00;;;10.20;67.70;;;;;;5067560;28;20039;-72
2022/03/04 07:32:03;;;;;;;24.40;14.43;;;10.20;67.60;;;;;;5067695;28;20044;-72
2022/03/04 07:34:28;;;;;;;23.63;14.38;;;10.20;67.60;;;;;;5068040;28;20779;-72
2022/03/04 07:36:54;;;;;;;25.67;14.50;;;10.20;67.60;;;;;;5066711;28;20066;-71
2022/03/04 07:39:20;;;;;;;22.88;14.10;;;10.20;67.60;;;;;;5067446;28;20093;-72
2022/03/04 07:41:48;;;;;;;24.00;13.60;;;10.20;67.60;;;;;;5067833;28;20039;-72
2022/03/04 07:44:14;;;;;;;21.73;13.85;;;10.20;67.50;;;;;;5066693;28;20048;-73
2022/03/04 07:46:40;;;;;;;20.55;13.55;;;10.20;67.60;;;;;;5065790;28;20119;-72
2022/03/04 07:49:05;;;;;;;23.67;14.30;;;10.20;67.60;;;;;;5067385;28;20166;-73
2022/03/04 07:51:31;;;;;;;22.20;14.25;;;10.20;67.60;;;;;;5066064;28;20059;-73
2022/03/04 07:53:57;;;;;;;25.45;14.13;;;10.20;67.50;;;;;;5067268;28;20025;-73
2022/03/04 07:56:23;;;;;;;21.92;13.40;;;10.20;67.30;;;;;;5067081;28;20158;-72
2022/03/04 07:58:49;;;;;;;20.70;13.98;;;10.20;67.30;;;;;;5065545;28;20067;-73
2022/03/04 08:01:14;;;;;;;20.95;14.25;;;10.20;67.40;;;;;;5066962;28;20047;-73
2022/03/04 08:03:40;;;;;;;20.27;13.30;;;10.20;67.50;;;;;;5065837;28;20592;-72
2022/03/04 08:06:06;;;;;;;23.33;13.73;;;10.20;67.60;;;;;;5065718;28;20020;-72
2022/03/04 08:08:31;;;;;;;20.77;13.68;;;10.20;67.60;;;;;;5067009;28;20490;-72
2022/03/04 08:10:57;;;;;;;20.85;13.30;;;10.20;67.60;;;;;;5066650;28;20094;-73
2022/03/04 08:13:22;;;;;;;22.08;13.05;;;10.20;67.50;;;;;;5065652;28;20035;-72
2022/03/04 08:15:48;;;;;;;20.27;13.77;;;10.20;67.50;;;;;;5065298;28;20029;-72
2022/03/04 08:18:14;;;;;;;20.48;14.05;;;10.20;67.50;;;;;;5065195;28;20028;-73
2022/03/04 08:20:39;;;;;;;19.88;13.68;;;10.20;67.40;;;;;;5066456;28;20036;-72
2022/03/04 08:23:05;;;;;;;18.67;13.48;;;10.20;67.30;;;;;;5065393;28;20024;-73
2022/03/04 08:25:31;;;;;;;19.23;13.07;;;10.20;67.30;;;;;;5066896;28;20154;-72
2022/03/04 08:27:57;;;;;;;20.98;12.15;;;10.20;67.30;;;;;;5066295;28;20033;-71
2022/03/04 08:30:23;;;;;;;19.52;12.77;;;10.20;67.30;;;;;;5066510;28;20040;-73
2022/03/04 08:32:49;;;;;;;18.35;12.07;;;10.20;67.30;;;;;;5066177;28;20032;-72
2022/03/04 08:35:14;;;;;;;19.23;13.02;;;10.20;67.40;;;;;;5065310;28;20020;-72
2022/03/04 08:37:40;;;;;;;20.45;12.43;;;10.20;67.40;;;;;;5064602;28;20028;-73
2022/03/04 08:40:08;;;;;;;22.25;12.85;;;10.30;67.40;;;;;;5064780;28;20039;-72
2022/03/04 08:42:34;;;;;;;18.88;12.50;;;10.30;67.40;;;;;;5066063;28;20021;-72
2022/03/04 08:45:00;;;;;;;20.38;12.40;;;10.30;67.30;;;;;;5066377;28;20035;-72
2022/03/04 08:47:26;;;;;;;17.35;11.70;;;10.30;67.20;;;;;;5066362;28;20381;-73
2022/03/04 08:49:51;;;;;;;17.42;12.18;;;10.40;67.30;;;;;;5066066;28;20024;-72
2022/03/04 08:52:17;;;;;;;18.65;12.55;;;10.40;67.10;;;;;;5064810;28;20032;-71
2022/03/04 08:54:42;;;;;;;17.88;12.13;;;10.50;67.00;;;;;;5066098;28;20494;-72
2022/03/04 08:57:08;;;;;;;17.52;12.10;;;10.60;66.70;;;;;;5064662;28;20029;-72
2022/03/04 08:59:33;;;;;;;19.20;12.20;;;10.70;66.80;;;;;;5063733;28;20039;-72
2022/03/04 09:01:59;;;;;;;16.98;11.98;;;10.70;66.90;;;;;;5064611;28;20115;-72
2022/03/04 09:04:24;;;;;;;18.60;12.85;;;10.80;66.50;;;;;;5066207;28;20500;-72
2022/03/04 09:06:50;;;;;;;17.58;12.32;;;10.80;66.50;;;;;;5065889;28;20066;-73
2022/03/04 09:09:17;;;;;;;16.92;12.30;;;10.90;66.70;;;;;;5065836;28;20039;-72
2022/03/04 09:11:43;;;;;;;18.10;12.48;;;10.90;67.00;;;;;;5065760;28;20051;-72
2022/03/04 09:14:09;;;;;;;19.33;12.90;;;10.90;67.00;;;;;;5065620;28;20032;-71
2022/03/04 09:16:35;;;;;;;19.55;13.02;;;11.00;67.30;;;;;;5065753;28;20020;-72
2022/03/04 09:19:00;;;;;;;16.70;12.23;;;11.00;67.10;;;;;;5063925;28;20086;-71
2022/03/04 09:21:26;;;;;;;18.52;12.35;;;11.00;67.20;;;;;;5064371;28;20311;-72
2022/03/04 09:23:52;;;;;;;18.38;12.80;;;11.10;67.40;;;;;;5064109;28;20123;-72
2022/03/04 09:26:17;;;;;;;17.70;11.65;;;11.10;67.40;;;;;;5064478;28;20027;-72
2022/03/04 09:28:43;;;;;;;18.45;12.52;;;11.20;67.30;;;;;;5065173;28;20039;-72
2022/03/04 09:31:09;;;;;;;17.35;11.95;;;11.20;67.40;;;;;;5065429;28;20078;-72
2022/03/04 09:33:35;;;;;;;17.35;12.50;;;11.20;67.30;;;;;;5063777;28;20303;-71
2022/03/04 09:36:00;;;;;;;18.38;12.23;;;11.20;67.30;;;;;;5064250;28;20032;-72
2022/03/04 09:38:27;;;;;;;16.88;11.70;;;11.30;67.30;;;;;;5063438;28;20040;-72
2022/03/04 09:40:52;;;;;;;17.88;12.00;;;11.30;67.30;;;;;;5063845;28;20123;-73
2022/03/04 09:43:19;;;;;;;15.85;11.77;;;11.30;67.30;;;;;;5063722;28;20178;-72
2022/03/04 09:45:46;;;;;;;18.33;11.95;;;11.30;67.90;;;;;;5064298;28;20068;-72
2022/03/04 09:48:12;;;;;;;17.25;11.88;;;11.40;67.40;;;;;;5065120;28;20028;-72
2022/03/04 09:50:38;;;;;;;17.10;11.65;;;11.40;67.40;;;;;;5063768;28;20036;-73
2022/03/04 09:53:09;;;;;;;17.55;12.15;;;11.40;67.40;;;;;;5065343;28;20036;-72
2022/03/04 09:55:35;;;;;;;17.63;12.18;;;11.40;67.40;;;;;;5063968;28;20048;-72
2022/03/04 09:58:01;;;;;;;16.95;11.73;;;11.50;67.40;;;;;;5063261;28;20036;-71
2022/03/04 10:00:27;;;;;;;17.15;11.70;;;11.50;67.40;;;;;;5065173;28;20033;-72
2022/03/04 10:02:52;;;;;;;16.17;11.30;;;11.50;67.40;;;;;;5064942;28;20033;-72
2022/03/04 10:05:18;;;;;;;16.50;11.90;;;11.50;67.40;;;;;;5065115;28;20444;-72
2022/03/04 10:07:49;;;;;;;17.35;12.27;;;11.50;67.50;;;;;;5064838;28;20772;-72
2022/03/04 10:10:22;;;;;;;17.88;12.60;;;11.50;67.50;;;;;;5063447;28;20119;-72
2022/03/04 10:12:55;;;;;;;17.08;12.20;;;11.60;67.50;;;;;;5069216;28;20035;-72
2022/03/04 10:15:21;;;;;;;18.15;12.15;;;11.60;67.40;;;;;;5067928;28;20418;-72
2022/03/04 10:18:07;;;;;;;17.65;11.60;;;11.60;67.40;;;;;;5067178;28;20393;-72
2022/03/04 10:20:40;;;;;;;17.17;12.02;;;11.60;67.30;;;;;;5067359;28;20062;-72
2022/03/04 10:23:11;;;;;;;17.83;11.93;;;11.60;67.40;;;;;;5067411;28;20054;-71
2022/03/04 10:25:36;;;;;;;16.10;11.37;;;11.70;67.40;;;;;;5068795;28;20065;-72
2022/03/04 10:28:09;;;;;;;17.27;11.98;;;11.70;67.50;;;;;;5067339;28;20032;-73
2022/03/04 10:30:35;;;;;;;16.10;11.57;;;11.70;67.40;;;;;;5068541;28;20056;-72
2022/03/04 10:33:09;;;;;;;17.08;12.00;;;11.70;67.50;;;;;;5066972;28;20123;-72
2022/03/04 10:35:35;;;;;;;17.58;11.80;;;11.70;67.50;;;;;;5068802;28;20039;-73
2022/03/04 10:38:02;;;;;;;17.13;11.25;;;11.70;67.50;;;;;;5068443;28;20045;-72
2022/03/04 10:40:32;;;;;;;15.45;11.63;;;11.70;67.50;;;;;;5066814;28;20051;-72
2022/03/04 10:43:05;;;;;;;16.00;11.10;;;11.70;67.40;;;;;;5067112;28;20024;-71
2022/03/04 10:45:34;;;;;;;16.52;11.55;;;11.80;67.30;;;;;;5067117;28;20060;-72
2022/03/04 10:48:04;;;;;;;15.43;11.02;;;11.80;67.20;;;;;;5066554;28;20112;-72
2022/03/04 10:50:42;;;;;;;16.88;11.25;;;11.80;67.20;;;;;;5066725;28;20029;-71
2022/03/04 10:53:19;;;;;;;16.00;11.23;;;11.80;67.20;;;;;;5068297;28;20100;-71
2022/03/04 10:56:07;;;;;;;16.67;11.07;;;11.80;67.30;;;;;;5068616;28;20024;-73
2022/03/04 10:58:35;;;;;;;15.90;10.55;;;11.80;67.30;;;;;;5066696;28;20482;-72
2022/03/04 11:01:09;;;;;;;15.77;10.88;;;11.80;67.30;;;;;;5067993;28;20490;-71
2022/03/04 11:03:37;;;;;;;15.65;11.10;;;11.80;67.20;;;;;;5066797;28;20067;-73
2022/03/04 11:06:10;;;;;;;15.50;10.60;;;11.80;67.20;;;;;;5068291;28;20032;-72
2022/03/04 11:08:38;;;;;;;15.60;10.55;;;11.80;67.10;;;;;;5067801;28;20016;-72
2022/03/04 11:11:05;;;;;;;15.32;10.65;;;11.90;67.20;;;;;;5066671;28;20143;-73
2022/03/04 11:13:34;;;;;;;15.73;10.75;;;11.90;67.20;;;;;;5066983;28;20048;-71
2022/03/04 11:16:00;;;;;;;15.43;10.80;;;11.90;67.10;;;;;;5066427;28;20037;-72
2022/03/04 11:18:26;;;;;;;16.67;11.50;;;11.90;67.10;;;;;;5067902;28;20094;-72
2022/03/04 11:20:55;;;;;;;15.02;10.07;;;11.90;67.10;;;;;;5067714;28;20036;-71
2022/03/04 11:23:26;;;;;;;15.90;10.45;;;11.90;67.10;;;;;;5067204;28;20174;-72
2022/03/04 11:25:58;;;;;;;16.73;10.93;;;11.90;67.00;;;;;;5067786;28;20373;-71
2022/03/04 11:28:44;;;;;;;14.57;9.93;;;11.90;67.10;;;;;;5067161;28;20028;-72
2022/03/04 11:31:13;;;;;;;15.35;10.68;;;11.90;67.30;;;;;;5066339;28;20028;-72
2022/03/04 11:33:46;;;;;;;15.70;10.25;;;11.90;67.30;;;;;;5066158;28;20359;-73
2022/03/04 11:36:16;;;;;;;15.23;10.70;;;11.90;67.30;;;;;;5067218;28;20501;-72
2022/03/04 11:38:53;;;;;;;16.10;10.75;;;11.90;67.30;;;;;;5065845;28;20028;-72
2022/03/04 11:41:32;;;;;;;15.80;11.02;;;11.90;67.30;;;;;;5066018;28;20394;-72
2022/03/04 11:44:24;;;;;;;15.60;10.63;;;11.90;67.30;;;;;;5066205;28;20048;-72
2022/03/04 11:47:02;;;;;;;14.50;10.25;;;11.90;67.30;;;;;;5064037;28;20498;-71
2022/03/04 11:49:49;;;;;;;15.65;10.43;;;12.00;67.30;;;;;;5065781;28;20123;-72
2022/03/04 11:52:43;;;;;;;14.75;10.00;;;12.00;67.20;;;;;;5066011;28;20115;-72
2022/03/04 11:55:11;;;;;;;14.35;10.00;;;12.00;67.10;;;;;;5066983;28;20056;-73
2022/03/04 11:57:44;;;;;;;15.23;10.02;;;12.00;67.10;;;;;;5066147;28;20021;-73
2022/03/04 12:00:10;;;;;;;14.70;10.07;;;12.00;67.10;;;;;;5066769;28;20428;-71
2022/03/04 12:02:42;;;;;;;15.52;10.25;;;12.00;67.00;;;;;;5067099;28;20074;-72
2022/03/04 12:05:14;;;;;;;15.82;10.10;;;12.00;67.10;;;;;;5065739;28;20486;-72
2022/03/04 12:07:41;;;;;;;;;;;12.00;67.20;;;;;;5067208;28;20090;-71
2022/03/04 12:10:11;;;;;;;14.43;9.43;;;12.00;67.30;;;;;;5065456;28;19979;-72
2022/03/04 12:12:38;;;;;;;16.08;10.00;;;12.00;67.40;;;;;;5066936;28;20413;-73
2022/03/04 12:15:16;;;;;;;15.10;9.98;;;12.00;67.40;;;;;;5065294;28;20028;-73
2022/03/04 12:17:52;;;;;;;15.10;10.55;;;12.00;67.40;;;;;;5066293;28;20067;-72
2022/03/04 12:20:39;;;;;;;15.50;10.02;;;12.00;67.40;;;;;;5066735;28;20211;-72
2022/03/04 12:23:09;;;;;;;15.27;10.23;;;12.00;67.40;;;;;;5066707;28;20400;-72
2022/03/04 12:25:59;;;;;;;15.13;10.27;;;11.90;67.40;;;;;;5066541;28;20032;-72
2022/03/04 12:28:45;;;;;;;15.57;10.07;;;12.00;67.40;;;;;;5066347;28;20021;-72